KUNV/SCE METAR and TAF weather

Enter ICAO airport designator
Station Type Date Time Source
KUNV METAR 2022/05/23 14:53 UTC NOAA

KUNV 231453Z 05008KT 10SM SCT030 SCT070 16/07 A3029


Station Type Date Time Source
KUNV Decoded METAR 2022/05/23 14:53 UTC NOAA

State College, University Park Airport, PA, United States (KUNV) 40-51N 077-51W
May 23, 2022 - 10:53 AM EDT / 2022.05.23 1453 UTC
Wind: from the NE (050 degrees) at 9 MPH (8 KT):0
Visibility: 10 mile(s):0
Sky conditions: partly cloudy
Temperature: 60 F (16 C)
Dew Point: 44 F (7 C)
Relative Humidity: 55%
Pressure (altimeter): 30.29 in. Hg (1025 hPa)
ob: KUNV 231453Z 05008KT 10SM SCT030 SCT070 16/07 A3029
cycle: 15

Station Type Date Time Source
KUNV TAF 2022/05/23 15:57 UTC NOAA

TAF
AMD KUNV 231454Z 2315/2412 05007KT P6SM SCT030 BKN200
FM232300 07003KT P6SM OVC100
FM241000 05005KT 6SM BR BKN020 OVC040

Example: see airport list